sensor_id;sensor_type;location;lat;lon;timestamp;P1;durP1;ratioP1;P2;durP2;ratioP2
10529;SDS011;5313;48.834;9.228;2023-04-29T00:01:06;1.90;;;1.67;;
10529;SDS011;5313;48.834;9.228;2023-04-29T00:03:32;4.30;;;2.07;;
10529;SDS011;5313;48.834;9.228;2023-04-29T00:05:57;2.30;;;2.07;;
10529;SDS011;5313;48.834;9.228;2023-04-29T00:08:23;3.27;;;1.80;;
10529;SDS011;5313;48.834;9.228;2023-04-29T00:10:49;3.87;;;1.90;;
10529;SDS011;5313;48.834;9.228;2023-04-29T00:13:15;2.60;;;1.93;;
10529;SDS011;5313;48.834;9.228;2023-04-29T00:15:41;1.87;;;1.57;;
10529;SDS011;5313;48.834;9.228;2023-04-29T00:18:07;3.13;;;1.83;;
10529;SDS011;5313;48.834;9.228;2023-04-29T00:20:33;2.20;;;1.90;;
10529;SDS011;5313;48.834;9.228;2023-04-29T00:22:58;2.00;;;1.80;;
10529;SDS011;5313;48.834;9.228;2023-04-29T00:25:24;2.27;;;1.93;;
10529;SDS011;5313;48.834;9.228;2023-04-29T00:27:50;2.77;;;1.80;;
10529;SDS011;5313;48.834;9.228;2023-04-29T00:30:15;2.53;;;1.90;;
10529;SDS011;5313;48.834;9.228;2023-04-29T00:32:41;2.13;;;1.73;;
10529;SDS011;5313;48.834;9.228;2023-04-29T00:35:07;3.40;;;1.90;;
10529;SDS011;5313;48.834;9.228;2023-04-29T00:37:33;2.23;;;2.00;;
10529;SDS011;5313;48.834;9.228;2023-04-29T00:39:59;1.97;;;1.60;;
10529;SDS011;5313;48.834;9.228;2023-04-29T00:42:24;2.30;;;2.00;;
10529;SDS011;5313;48.834;9.228;2023-04-29T00:44:50;3.27;;;2.00;;
10529;SDS011;5313;48.834;9.228;2023-04-29T00:47:16;2.83;;;1.90;;
10529;SDS011;5313;48.834;9.228;2023-04-29T00:49:42;2.27;;;2.07;;
10529;SDS011;5313;48.834;9.228;2023-04-29T00:52:07;2.00;;;1.77;;
10529;SDS011;5313;48.834;9.228;2023-04-29T00:54:36;2.83;;;1.73;;
10529;SDS011;5313;48.834;9.228;2023-04-29T00:57:03;2.60;;;1.80;;
10529;SDS011;5313;48.834;9.228;2023-04-29T00:59:30;2.40;;;2.00;;
10529;SDS011;5313;48.834;9.228;2023-04-29T01:02:00;2.50;;;2.30;;
10529;SDS011;5313;48.834;9.228;2023-04-29T01:04:26;6.73;;;2.20;;
10529;SDS011;5313;48.834;9.228;2023-04-29T01:10:02;3.30;;;2.30;;
10529;SDS011;5313;48.834;9.228;2023-04-29T01:15:27;3.57;;;3.10;;
10529;SDS011;5313;48.834;9.228;2023-04-29T01:17:59;4.03;;;2.83;;
10529;SDS011;5313;48.834;9.228;2023-04-29T01:20:29;6.93;;;3.40;;
10529;SDS011;5313;48.834;9.228;2023-04-29T01:22:55;5.47;;;3.27;;
10529;SDS011;5313;48.834;9.228;2023-04-29T01:25:21;3.40;;;3.10;;
10529;SDS011;5313;48.834;9.228;2023-04-29T01:27:56;4.67;;;3.60;;
10529;SDS011;5313;48.834;9.228;2023-04-29T01:35:58;4.63;;;3.90;;
10529;SDS011;5313;48.834;9.228;2023-04-29T01:44:04;4.57;;;3.60;;
10529;SDS011;5313;48.834;9.228;2023-04-29T01:46:32;4.37;;;3.80;;
10529;SDS011;5313;48.834;9.228;2023-04-29T01:48:59;4.00;;;3.60;;
10529;SDS011;5313;48.834;9.228;2023-04-29T01:51:24;3.70;;;3.40;;
10529;SDS011;5313;48.834;9.228;2023-04-29T01:53:50;5.87;;;3.80;;
10529;SDS011;5313;48.834;9.228;2023-04-29T01:56:16;5.17;;;3.90;;
10529;SDS011;5313;48.834;9.228;2023-04-29T01:58:42;4.87;;;4.20;;
10529;SDS011;5313;48.834;9.228;2023-04-29T02:01:07;4.77;;;4.03;;
10529;SDS011;5313;48.834;9.228;2023-04-29T02:03:34;4.47;;;3.53;;
10529;SDS011;5313;48.834;9.228;2023-04-29T02:06:00;6.37;;;3.93;;
10529;SDS011;5313;48.834;9.228;2023-04-29T02:08:26;4.73;;;4.33;;
10529;SDS011;5313;48.834;9.228;2023-04-29T02:10:55;5.00;;;3.80;;
10529;SDS011;5313;48.834;9.228;2023-04-29T02:13:21;7.47;;;4.20;;
10529;SDS011;5313;48.834;9.228;2023-04-29T02:15:46;6.20;;;4.20;;
10529;SDS011;5313;48.834;9.228;2023-04-29T02:18:12;5.53;;;4.27;;
10529;SDS011;5313;48.834;9.228;2023-04-29T02:20:38;6.17;;;4.10;;
10529;SDS011;5313;48.834;9.228;2023-04-29T02:23:03;5.33;;;4.43;;
10529;SDS011;5313;48.834;9.228;2023-04-29T02:25:29;6.10;;;4.87;;
10529;SDS011;5313;48.834;9.228;2023-04-29T02:27:54;5.00;;;4.50;;
10529;SDS011;5313;48.834;9.228;2023-04-29T02:30:20;6.43;;;4.47;;
10529;SDS011;5313;48.834;9.228;2023-04-29T02:32:45;4.83;;;4.07;;
10529;SDS011;5313;48.834;9.228;2023-04-29T02:35:11;6.23;;;4.50;;
10529;SDS011;5313;48.834;9.228;2023-04-29T02:37:36;7.83;;;4.37;;
10529;SDS011;5313;48.834;9.228;2023-04-29T02:40:02;4.67;;;4.23;;
10529;SDS011;5313;48.834;9.228;2023-04-29T02:42:29;6.53;;;4.90;;
10529;SDS011;5313;48.834;9.228;2023-04-29T02:44:54;9.33;;;4.87;;
10529;SDS011;5313;48.834;9.228;2023-04-29T02:47:20;5.77;;;4.70;;
10529;SDS011;5313;48.834;9.228;2023-04-29T02:49:45;4.43;;;4.03;;
10529;SDS011;5313;48.834;9.228;2023-04-29T02:52:11;5.13;;;4.30;;
10529;SDS011;5313;48.834;9.228;2023-04-29T02:54:37;5.50;;;4.83;;
10529;SDS011;5313;48.834;9.228;2023-04-29T02:57:03;6.63;;;4.23;;
10529;SDS011;5313;48.834;9.228;2023-04-29T02:59:28;5.77;;;4.83;;
10529;SDS011;5313;48.834;9.228;2023-04-29T03:01:54;6.60;;;4.90;;
10529;SDS011;5313;48.834;9.228;2023-04-29T03:04:19;6.77;;;4.50;;
10529;SDS011;5313;48.834;9.228;2023-04-29T03:06:45;8.80;;;4.40;;
10529;SDS011;5313;48.834;9.228;2023-04-29T03:09:11;4.53;;;3.87;;
10529;SDS011;5313;48.834;9.228;2023-04-29T03:11:37;4.70;;;4.20;;
10529;SDS011;5313;48.834;9.228;2023-04-29T03:14:03;6.60;;;4.80;;
10529;SDS011;5313;48.834;9.228;2023-04-29T03:16:29;9.77;;;4.93;;
10529;SDS011;5313;48.834;9.228;2023-04-29T03:18:55;6.40;;;4.43;;
10529;SDS011;5313;48.834;9.228;2023-04-29T03:21:20;6.20;;;4.60;;
10529;SDS011;5313;48.834;9.228;2023-04-29T03:23:46;6.67;;;4.40;;
10529;SDS011;5313;48.834;9.228;2023-04-29T03:26:12;7.07;;;4.40;;
10529;SDS011;5313;48.834;9.228;2023-04-29T03:28:37;4.67;;;4.13;;
10529;SDS011;5313;48.834;9.228;2023-04-29T03:31:03;6.70;;;4.47;;
10529;SDS011;5313;48.834;9.228;2023-04-29T03:33:28;5.03;;;4.23;;
10529;SDS011;5313;48.834;9.228;2023-04-29T03:35:54;4.73;;;4.13;;
10529;SDS011;5313;48.834;9.228;2023-04-29T03:38:19;4.77;;;4.23;;
10529;SDS011;5313;48.834;9.228;2023-04-29T03:40:45;5.93;;;4.30;;
10529;SDS011;5313;48.834;9.228;2023-04-29T03:43:11;13.43;;;5.30;;
10529;SDS011;5313;48.834;9.228;2023-04-29T03:45:37;5.07;;;4.37;;
10529;SDS011;5313;48.834;9.228;2023-04-29T03:48:03;5.20;;;4.50;;
10529;SDS011;5313;48.834;9.228;2023-04-29T03:50:29;5.33;;;4.70;;
10529;SDS011;5313;48.834;9.228;2023-04-29T03:52:55;8.97;;;5.10;;
10529;SDS011;5313;48.834;9.228;2023-04-29T03:55:21;5.40;;;4.37;;
10529;SDS011;5313;48.834;9.228;2023-04-29T03:57:47;5.13;;;4.63;;
10529;SDS011;5313;48.834;9.228;2023-04-29T04:00:12;5.40;;;4.30;;
10529;SDS011;5313;48.834;9.228;2023-04-29T04:02:39;6.93;;;4.27;;
10529;SDS011;5313;48.834;9.228;2023-04-29T04:05:04;5.77;;;4.03;;
10529;SDS011;5313;48.834;9.228;2023-04-29T04:07:30;5.47;;;4.37;;
10529;SDS011;5313;48.834;9.228;2023-04-29T04:09:55;5.00;;;4.30;;
10529;SDS011;5313;48.834;9.228;2023-04-29T04:12:21;5.60;;;4.63;;
10529;SDS011;5313;48.834;9.228;2023-04-29T04:14:46;5.93;;;4.47;;
10529;SDS011;5313;48.834;9.228;2023-04-29T04:17:12;4.80;;;4.30;;
10529;SDS011;5313;48.834;9.228;2023-04-29T04:19:37;5.30;;;4.80;;
10529;SDS011;5313;48.834;9.228;2023-04-29T04:22:03;4.80;;;4.37;;
10529;SDS011;5313;48.834;9.228;2023-04-29T04:24:28;4.33;;;3.93;;
10529;SDS011;5313;48.834;9.228;2023-04-29T04:26:54;7.37;;;5.03;;
10529;SDS011;5313;48.834;9.228;2023-04-29T04:29:19;5.93;;;5.13;;
10529;SDS011;5313;48.834;9.228;2023-04-29T04:31:45;6.03;;;5.30;;
10529;SDS011;5313;48.834;9.228;2023-04-29T04:34:11;7.73;;;4.43;;
10529;SDS011;5313;48.834;9.228;2023-04-29T04:36:36;5.47;;;4.77;;
10529;SDS011;5313;48.834;9.228;2023-04-29T04:39:02;6.90;;;4.23;;
10529;SDS011;5313;48.834;9.228;2023-04-29T04:41:27;7.47;;;4.10;;
10529;SDS011;5313;48.834;9.228;2023-04-29T04:43:55;5.50;;;4.00;;
10529;SDS011;5313;48.834;9.228;2023-04-29T04:46:21;5.63;;;4.40;;
10529;SDS011;5313;48.834;9.228;2023-04-29T04:48:46;5.83;;;4.50;;
10529;SDS011;5313;48.834;9.228;2023-04-29T04:51:12;6.77;;;4.60;;
10529;SDS011;5313;48.834;9.228;2023-04-29T04:53:38;6.73;;;5.27;;
10529;SDS011;5313;48.834;9.228;2023-04-29T04:56:05;5.50;;;4.80;;
10529;SDS011;5313;48.834;9.228;2023-04-29T04:58:31;7.40;;;4.80;;
10529;SDS011;5313;48.834;9.228;2023-04-29T05:00:57;4.70;;;4.30;;
10529;SDS011;5313;48.834;9.228;2023-04-29T05:03:24;8.30;;;5.17;;
10529;SDS011;5313;48.834;9.228;2023-04-29T05:05:56;7.10;;;5.83;;
10529;SDS011;5313;48.834;9.228;2023-04-29T05:08:22;7.50;;;6.77;;
10529;SDS011;5313;48.834;9.228;2023-04-29T05:10:48;9.17;;;6.87;;
10529;SDS011;5313;48.834;9.228;2023-04-29T05:13:14;8.83;;;7.47;;
10529;SDS011;5313;48.834;9.228;2023-04-29T05:15:39;10.10;;;7.27;;
10529;SDS011;5313;48.834;9.228;2023-04-29T05:18:05;7.17;;;5.70;;
10529;SDS011;5313;48.834;9.228;2023-04-29T05:20:31;6.53;;;5.27;;
10529;SDS011;5313;48.834;9.228;2023-04-29T05:22:56;5.40;;;4.83;;
10529;SDS011;5313;48.834;9.228;2023-04-29T05:25:22;6.67;;;5.40;;
10529;SDS011;5313;48.834;9.228;2023-04-29T05:27:47;7.43;;;6.60;;
10529;SDS011;5313;48.834;9.228;2023-04-29T05:30:13;7.13;;;5.70;;
10529;SDS011;5313;48.834;9.228;2023-04-29T05:32:39;6.40;;;5.60;;
10529;SDS011;5313;48.834;9.228;2023-04-29T05:35:05;6.00;;;4.73;;
10529;SDS011;5313;48.834;9.228;2023-04-29T05:37:31;5.17;;;4.67;;
10529;SDS011;5313;48.834;9.228;2023-04-29T05:39:57;6.53;;;4.60;;
10529;SDS011;5313;48.834;9.228;2023-04-29T05:42:22;6.80;;;4.80;;
10529;SDS011;5313;48.834;9.228;2023-04-29T05:44:48;6.77;;;4.67;;
10529;SDS011;5313;48.834;9.228;2023-04-29T05:47:15;6.37;;;4.10;;
10529;SDS011;5313;48.834;9.228;2023-04-29T05:49:40;6.17;;;4.03;;
10529;SDS011;5313;48.834;9.228;2023-04-29T05:52:06;5.70;;;4.10;;
10529;SDS011;5313;48.834;9.228;2023-04-29T05:54:32;5.80;;;3.90;;
10529;SDS011;5313;48.834;9.228;2023-04-29T05:56:57;4.40;;;3.93;;
10529;SDS011;5313;48.834;9.228;2023-04-29T05:59:26;3.77;;;3.27;;
10529;SDS011;5313;48.834;9.228;2023-04-29T06:01:55;5.37;;;3.73;;
10529;SDS011;5313;48.834;9.228;2023-04-29T06:04:21;5.00;;;3.20;;
10529;SDS011;5313;48.834;9.228;2023-04-29T06:06:46;3.67;;;3.30;;
10529;SDS011;5313;48.834;9.228;2023-04-29T06:09:12;4.80;;;3.60;;
10529;SDS011;5313;48.834;9.228;2023-04-29T06:11:39;5.20;;;3.30;;
10529;SDS011;5313;48.834;9.228;2023-04-29T06:14:05;3.63;;;3.33;;
10529;SDS011;5313;48.834;9.228;2023-04-29T06:16:30;5.67;;;3.70;;
10529;SDS011;5313;48.834;9.228;2023-04-29T06:18:56;5.67;;;3.50;;
10529;SDS011;5313;48.834;9.228;2023-04-29T06:21:22;5.87;;;3.67;;
10529;SDS011;5313;48.834;9.228;2023-04-29T06:23:47;5.53;;;3.40;;
10529;SDS011;5313;48.834;9.228;2023-04-29T06:26:13;4.97;;;3.73;;
10529;SDS011;5313;48.834;9.228;2023-04-29T06:28:38;4.23;;;3.60;;
10529;SDS011;5313;48.834;9.228;2023-04-29T06:31:04;6.97;;;3.30;;
10529;SDS011;5313;48.834;9.228;2023-04-29T06:33:29;4.97;;;3.30;;
10529;SDS011;5313;48.834;9.228;2023-04-29T06:35:57;5.47;;;3.10;;
10529;SDS011;5313;48.834;9.228;2023-04-29T06:38:23;4.37;;;2.90;;
10529;SDS011;5313;48.834;9.228;2023-04-29T06:40:49;5.27;;;3.23;;
10529;SDS011;5313;48.834;9.228;2023-04-29T06:43:14;3.03;;;2.77;;
10529;SDS011;5313;48.834;9.228;2023-04-29T06:45:40;3.23;;;2.93;;
10529;SDS011;5313;48.834;9.228;2023-04-29T06:48:06;3.00;;;2.67;;
10529;SDS011;5313;48.834;9.228;2023-04-29T06:50:31;4.40;;;3.00;;
10529;SDS011;5313;48.834;9.228;2023-04-29T06:52:57;3.17;;;2.83;;
10529;SDS011;5313;48.834;9.228;2023-04-29T06:55:23;3.23;;;2.53;;
10529;SDS011;5313;48.834;9.228;2023-04-29T06:57:48;3.13;;;2.30;;
10529;SDS011;5313;48.834;9.228;2023-04-29T07:00:14;2.40;;;2.10;;
10529;SDS011;5313;48.834;9.228;2023-04-29T07:02:40;2.53;;;2.30;;
10529;SDS011;5313;48.834;9.228;2023-04-29T07:05:06;3.23;;;2.80;;
10529;SDS011;5313;48.834;9.228;2023-04-29T07:07:31;2.83;;;2.53;;
10529;SDS011;5313;48.834;9.228;2023-04-29T07:09:57;3.00;;;2.70;;
10529;SDS011;5313;48.834;9.228;2023-04-29T07:12:22;3.97;;;2.20;;
10529;SDS011;5313;48.834;9.228;2023-04-29T07:14:48;2.40;;;2.10;;
10529;SDS011;5313;48.834;9.228;2023-04-29T07:17:13;6.70;;;5.60;;
10529;SDS011;5313;48.834;9.228;2023-04-29T07:19:39;4.47;;;2.57;;
10529;SDS011;5313;48.834;9.228;2023-04-29T07:22:04;2.40;;;2.20;;
10529;SDS011;5313;48.834;9.228;2023-04-29T07:24:30;2.40;;;2.20;;
10529;SDS011;5313;48.834;9.228;2023-04-29T07:26:55;2.27;;;2.07;;
10529;SDS011;5313;48.834;9.228;2023-04-29T07:29:21;2.73;;;2.23;;
10529;SDS011;5313;48.834;9.228;2023-04-29T07:31:46;3.50;;;2.07;;
10529;SDS011;5313;48.834;9.228;2023-04-29T07:34:12;4.10;;;2.10;;
10529;SDS011;5313;48.834;9.228;2023-04-29T07:36:37;6.27;;;2.40;;
10529;SDS011;5313;48.834;9.228;2023-04-29T07:39:03;2.70;;;2.47;;
10529;SDS011;5313;48.834;9.228;2023-04-29T07:41:29;3.13;;;2.83;;
10529;SDS011;5313;48.834;9.228;2023-04-29T07:43:55;2.30;;;2.10;;
10529;SDS011;5313;48.834;9.228;2023-04-29T07:46:20;3.77;;;2.20;;
10529;SDS011;5313;48.834;9.228;2023-04-29T07:48:46;2.50;;;2.20;;
10529;SDS011;5313;48.834;9.228;2023-04-29T07:51:12;2.23;;;1.90;;
10529;SDS011;5313;48.834;9.228;2023-04-29T07:53:38;2.27;;;1.97;;
10529;SDS011;5313;48.834;9.228;2023-04-29T07:56:05;2.20;;;1.87;;
10529;SDS011;5313;48.834;9.228;2023-04-29T07:58:31;3.10;;;2.10;;
10529;SDS011;5313;48.834;9.228;2023-04-29T08:01:03;2.20;;;1.90;;
10529;SDS011;5313;48.834;9.228;2023-04-29T08:03:35;2.17;;;1.80;;
10529;SDS011;5313;48.834;9.228;2023-04-29T08:06:02;2.70;;;1.90;;
10529;SDS011;5313;48.834;9.228;2023-04-29T08:08:29;3.57;;;2.13;;
10529;SDS011;5313;48.834;9.228;2023-04-29T08:10:55;3.10;;;2.10;;
10529;SDS011;5313;48.834;9.228;2023-04-29T08:13:21;3.13;;;2.20;;
10529;SDS011;5313;48.834;9.228;2023-04-29T08:15:46;2.47;;;2.10;;
10529;SDS011;5313;48.834;9.228;2023-04-29T08:18:12;2.70;;;2.20;;
10529;SDS011;5313;48.834;9.228;2023-04-29T08:20:37;6.03;;;2.20;;
10529;SDS011;5313;48.834;9.228;2023-04-29T08:23:03;3.80;;;2.53;;
10529;SDS011;5313;48.834;9.228;2023-04-29T08:25:29;2.87;;;2.17;;
10529;SDS011;5313;48.834;9.228;2023-04-29T08:27:54;4.53;;;2.30;;
10529;SDS011;5313;48.834;9.228;2023-04-29T08:30:20;2.83;;;2.40;;
10529;SDS011;5313;48.834;9.228;2023-04-29T08:32:46;3.20;;;2.20;;
10529;SDS011;5313;48.834;9.228;2023-04-29T08:35:11;2.30;;;2.00;;
10529;SDS011;5313;48.834;9.228;2023-04-29T08:37:37;2.63;;;2.13;;
10529;SDS011;5313;48.834;9.228;2023-04-29T08:40:03;2.53;;;1.90;;
10529;SDS011;5313;48.834;9.228;2023-04-29T08:42:33;4.37;;;2.50;;
10529;SDS011;5313;48.834;9.228;2023-04-29T08:45:00;2.67;;;2.37;;
10529;SDS011;5313;48.834;9.228;2023-04-29T08:47:30;3.40;;;2.10;;
10529;SDS011;5313;48.834;9.228;2023-04-29T08:50:05;3.43;;;2.30;;
10529;SDS011;5313;48.834;9.228;2023-04-29T08:52:31;2.37;;;2.17;;
10529;SDS011;5313;48.834;9.228;2023-04-29T08:54:58;3.03;;;2.30;;
10529;SDS011;5313;48.834;9.228;2023-04-29T08:57:26;2.70;;;2.17;;
10529;SDS011;5313;48.834;9.228;2023-04-29T08:59:53;2.23;;;2.00;;
10529;SDS011;5313;48.834;9.228;2023-04-29T09:02:19;2.70;;;2.17;;
10529;SDS011;5313;48.834;9.228;2023-04-29T09:04:47;4.80;;;2.10;;
10529;SDS011;5313;48.834;9.228;2023-04-29T09:07:21;2.60;;;2.00;;
10529;SDS011;5313;48.834;9.228;2023-04-29T09:09:48;3.03;;;2.40;;
10529;SDS011;5313;48.834;9.228;2023-04-29T09:12:15;4.23;;;2.33;;
10529;SDS011;5313;48.834;9.228;2023-04-29T09:14:41;2.60;;;2.40;;
10529;SDS011;5313;48.834;9.228;2023-04-29T09:17:06;3.53;;;2.67;;
10529;SDS011;5313;48.834;9.228;2023-04-29T09:19:33;3.57;;;2.47;;
10529;SDS011;5313;48.834;9.228;2023-04-29T09:22:01;3.30;;;2.77;;
10529;SDS011;5313;48.834;9.228;2023-04-29T09:24:28;3.80;;;3.10;;
10529;SDS011;5313;48.834;9.228;2023-04-29T09:26:55;3.00;;;2.73;;
10529;SDS011;5313;48.834;9.228;2023-04-29T09:29:22;3.13;;;2.83;;
10529;SDS011;5313;48.834;9.228;2023-04-29T09:31:48;3.33;;;3.00;;
10529;SDS011;5313;48.834;9.228;2023-04-29T09:34:14;3.50;;;2.90;;
10529;SDS011;5313;48.834;9.228;2023-04-29T09:39:17;3.60;;;2.67;;
10529;SDS011;5313;48.834;9.228;2023-04-29T09:44:22;2.50;;;2.30;;
10529;SDS011;5313;48.834;9.228;2023-04-29T09:49:29;2.47;;;2.27;;
10529;SDS011;5313;48.834;9.228;2023-04-29T09:52:04;2.87;;;2.50;;
10529;SDS011;5313;48.834;9.228;2023-04-29T09:54:31;2.37;;;2.17;;
10529;SDS011;5313;48.834;9.228;2023-04-29T09:56:58;4.43;;;2.70;;
10529;SDS011;5313;48.834;9.228;2023-04-29T09:59:26;3.77;;;2.63;;
10529;SDS011;5313;48.834;9.228;2023-04-29T10:01:55;3.73;;;2.40;;
10529;SDS011;5313;48.834;9.228;2023-04-29T10:04:22;2.93;;;2.57;;
10529;SDS011;5313;48.834;9.228;2023-04-29T10:06:50;2.97;;;2.33;;
10529;SDS011;5313;48.834;9.228;2023-04-29T10:09:20;3.17;;;2.40;;
10529;SDS011;5313;48.834;9.228;2023-04-29T10:11:51;2.40;;;2.20;;
10529;SDS011;5313;48.834;9.228;2023-04-29T10:14:18;2.43;;;2.20;;
10529;SDS011;5313;48.834;9.228;2023-04-29T10:16:46;3.23;;;2.17;;
10529;SDS011;5313;48.834;9.228;2023-04-29T10:19:14;3.13;;;2.03;;
10529;SDS011;5313;48.834;9.228;2023-04-29T10:21:43;2.63;;;2.20;;
10529;SDS011;5313;48.834;9.228;2023-04-29T10:24:09;2.60;;;2.40;;
10529;SDS011;5313;48.834;9.228;2023-04-29T10:26:37;2.70;;;2.40;;
10529;SDS011;5313;48.834;9.228;2023-04-29T10:29:03;3.50;;;2.67;;
10529;SDS011;5313;48.834;9.228;2023-04-29T10:31:32;2.57;;;2.33;;
10529;SDS011;5313;48.834;9.228;2023-04-29T10:33:59;3.93;;;2.10;;
10529;SDS011;5313;48.834;9.228;2023-04-29T10:36:26;2.73;;;2.00;;
10529;SDS011;5313;48.834;9.228;2023-04-29T10:38:55;2.90;;;2.60;;
10529;SDS011;5313;48.834;9.228;2023-04-29T10:41:27;2.50;;;2.10;;
10529;SDS011;5313;48.834;9.228;2023-04-29T10:43:58;2.77;;;2.43;;
10529;SDS011;5313;48.834;9.228;2023-04-29T10:46:24;2.30;;;2.10;;
10529;SDS011;5313;48.834;9.228;2023-04-29T10:48:55;2.50;;;2.13;;
10529;SDS011;5313;48.834;9.228;2023-04-29T10:51:41;2.40;;;2.20;;
10529;SDS011;5313;48.834;9.228;2023-04-29T10:56:46;3.90;;;1.90;;
10529;SDS011;5313;48.834;9.228;2023-04-29T10:59:14;2.20;;;1.80;;
10529;SDS011;5313;48.834;9.228;2023-04-29T11:02:06;2.67;;;2.30;;
10529;SDS011;5313;48.834;9.228;2023-04-29T11:04:33;2.70;;;1.80;;
10529;SDS011;5313;48.834;9.228;2023-04-29T11:06:59;3.50;;;2.17;;
10529;SDS011;5313;48.834;9.228;2023-04-29T11:09:26;2.97;;;2.30;;
10529;SDS011;5313;48.834;9.228;2023-04-29T11:14:26;2.53;;;2.13;;
10529;SDS011;5313;48.834;9.228;2023-04-29T11:16:56;3.63;;;2.07;;
10529;SDS011;5313;48.834;9.228;2023-04-29T11:19:33;2.27;;;1.90;;
10529;SDS011;5313;48.834;9.228;2023-04-29T11:24:50;2.77;;;2.20;;
10529;SDS011;5313;48.834;9.228;2023-04-29T11:27:20;7.10;;;2.47;;
10529;SDS011;5313;48.834;9.228;2023-04-29T11:29:49;2.73;;;2.00;;
10529;SDS011;5313;48.834;9.228;2023-04-29T11:32:19;2.90;;;2.00;;
10529;SDS011;5313;48.834;9.228;2023-04-29T11:34:46;4.27;;;2.47;;
10529;SDS011;5313;48.834;9.228;2023-04-29T11:37:11;3.13;;;2.70;;
10529;SDS011;5313;48.834;9.228;2023-04-29T11:39:37;4.97;;;2.70;;
10529;SDS011;5313;48.834;9.228;2023-04-29T11:42:03;2.60;;;2.10;;
10529;SDS011;5313;48.834;9.228;2023-04-29T11:44:29;4.03;;;3.10;;
10529;SDS011;5313;48.834;9.228;2023-04-29T11:47:03;4.10;;;2.80;;
10529;SDS011;5313;48.834;9.228;2023-04-29T11:49:32;3.87;;;2.93;;
10529;SDS011;5313;48.834;9.228;2023-04-29T11:51:59;4.03;;;2.50;;
10529;SDS011;5313;48.834;9.228;2023-04-29T11:54:25;4.17;;;3.03;;
10529;SDS011;5313;48.834;9.228;2023-04-29T11:56:55;6.33;;;3.77;;
10529;SDS011;5313;48.834;9.228;2023-04-29T11:59:22;4.30;;;3.43;;
10529;SDS011;5313;48.834;9.228;2023-04-29T12:01:48;5.23;;;4.27;;
10529;SDS011;5313;48.834;9.228;2023-04-29T12:04:14;4.73;;;3.53;;
10529;SDS011;5313;48.834;9.228;2023-04-29T12:06:41;3.60;;;2.90;;
10529;SDS011;5313;48.834;9.228;2023-04-29T12:09:06;4.70;;;3.43;;
10529;SDS011;5313;48.834;9.228;2023-04-29T12:11:32;3.33;;;3.03;;
10529;SDS011;5313;48.834;9.228;2023-04-29T12:13:59;3.77;;;3.20;;
10529;SDS011;5313;48.834;9.228;2023-04-29T12:16:27;4.93;;;3.00;;
10529;SDS011;5313;48.834;9.228;2023-04-29T12:18:54;3.63;;;3.33;;
10529;SDS011;5313;48.834;9.228;2023-04-29T12:21:20;3.30;;;2.93;;
10529;SDS011;5313;48.834;9.228;2023-04-29T12:23:46;3.90;;;3.40;;
10529;SDS011;5313;48.834;9.228;2023-04-29T12:26:12;3.73;;;3.20;;
10529;SDS011;5313;48.834;9.228;2023-04-29T12:28:39;4.97;;;3.50;;
10529;SDS011;5313;48.834;9.228;2023-04-29T12:31:07;5.73;;;3.80;;
10529;SDS011;5313;48.834;9.228;2023-04-29T12:33:34;4.53;;;3.80;;
10529;SDS011;5313;48.834;9.228;2023-04-29T12:35:59;4.80;;;3.43;;
10529;SDS011;5313;48.834;9.228;2023-04-29T12:38:26;6.50;;;4.10;;
10529;SDS011;5313;48.834;9.228;2023-04-29T12:40:54;4.30;;;3.77;;
10529;SDS011;5313;48.834;9.228;2023-04-29T12:43:30;4.30;;;3.90;;
10529;SDS011;5313;48.834;9.228;2023-04-29T12:46:03;3.80;;;3.10;;
10529;SDS011;5313;48.834;9.228;2023-04-29T12:48:33;6.67;;;3.60;;
10529;SDS011;5313;48.834;9.228;2023-04-29T12:51:01;3.83;;;3.23;;
10529;SDS011;5313;48.834;9.228;2023-04-29T12:53:28;4.07;;;3.27;;
10529;SDS011;5313;48.834;9.228;2023-04-29T12:55:54;4.10;;;3.70;;
10529;SDS011;5313;48.834;9.228;2023-04-29T12:58:20;4.63;;;3.47;;
10529;SDS011;5313;48.834;9.228;2023-04-29T13:00:46;5.87;;;4.27;;
10529;SDS011;5313;48.834;9.228;2023-04-29T13:03:11;4.33;;;3.60;;
10529;SDS011;5313;48.834;9.228;2023-04-29T13:05:37;4.40;;;3.63;;
10529;SDS011;5313;48.834;9.228;2023-04-29T13:08:03;8.37;;;4.33;;
10529;SDS011;5313;48.834;9.228;2023-04-29T13:10:32;6.57;;;4.17;;
10529;SDS011;5313;48.834;9.228;2023-04-29T13:12:58;4.20;;;3.80;;
10529;SDS011;5313;48.834;9.228;2023-04-29T13:15:24;5.83;;;4.10;;
10529;SDS011;5313;48.834;9.228;2023-04-29T13:17:50;4.80;;;4.30;;
10529;SDS011;5313;48.834;9.228;2023-04-29T13:20:16;6.90;;;4.40;;
10529;SDS011;5313;48.834;9.228;2023-04-29T13:22:42;6.23;;;4.33;;
10529;SDS011;5313;48.834;9.228;2023-04-29T13:25:08;5.17;;;4.00;;
10529;SDS011;5313;48.834;9.228;2023-04-29T13:27:35;7.93;;;4.57;;
10529;SDS011;5313;48.834;9.228;2023-04-29T13:30:01;6.53;;;4.80;;
10529;SDS011;5313;48.834;9.228;2023-04-29T13:32:26;5.70;;;4.70;;
10529;SDS011;5313;48.834;9.228;2023-04-29T13:34:52;8.57;;;5.10;;
10529;SDS011;5313;48.834;9.228;2023-04-29T13:37:18;6.90;;;4.80;;
10529;SDS011;5313;48.834;9.228;2023-04-29T13:39:44;6.80;;;4.90;;
10529;SDS011;5313;48.834;9.228;2023-04-29T13:42:10;6.60;;;5.17;;
10529;SDS011;5313;48.834;9.228;2023-04-29T13:44:35;5.13;;;4.57;;
10529;SDS011;5313;48.834;9.228;2023-04-29T13:47:01;6.23;;;4.63;;
10529;SDS011;5313;48.834;9.228;2023-04-29T13:49:28;7.37;;;4.60;;
10529;SDS011;5313;48.834;9.228;2023-04-29T13:51:53;5.13;;;4.53;;
10529;SDS011;5313;48.834;9.228;2023-04-29T13:54:19;6.90;;;5.20;;
10529;SDS011;5313;48.834;9.228;2023-04-29T13:56:45;5.53;;;4.50;;
10529;SDS011;5313;48.834;9.228;2023-04-29T13:59:12;6.63;;;4.70;;
10529;SDS011;5313;48.834;9.228;2023-04-29T14:01:37;6.33;;;5.13;;
10529;SDS011;5313;48.834;9.228;2023-04-29T14:04:03;5.50;;;4.87;;
10529;SDS011;5313;48.834;9.228;2023-04-29T14:06:28;6.60;;;5.10;;
10529;SDS011;5313;48.834;9.228;2023-04-29T14:08:56;6.23;;;5.33;;
10529;SDS011;5313;48.834;9.228;2023-04-29T14:11:22;5.73;;;4.87;;
10529;SDS011;5313;48.834;9.228;2023-04-29T14:13:47;6.50;;;5.60;;
10529;SDS011;5313;48.834;9.228;2023-04-29T14:16:13;7.27;;;5.13;;
10529;SDS011;5313;48.834;9.228;2023-04-29T14:18:38;6.30;;;4.70;;
10529;SDS011;5313;48.834;9.228;2023-04-29T14:21:04;6.90;;;4.33;;
10529;SDS011;5313;48.834;9.228;2023-04-29T14:23:29;6.90;;;5.27;;
10529;SDS011;5313;48.834;9.228;2023-04-29T14:25:55;7.30;;;5.50;;
10529;SDS011;5313;48.834;9.228;2023-04-29T14:28:20;6.67;;;5.23;;
10529;SDS011;5313;48.834;9.228;2023-04-29T14:30:46;7.43;;;5.67;;
10529;SDS011;5313;48.834;9.228;2023-04-29T14:33:11;6.57;;;5.50;;
10529;SDS011;5313;48.834;9.228;2023-04-29T14:35:37;7.07;;;5.13;;
10529;SDS011;5313;48.834;9.228;2023-04-29T14:38:02;6.17;;;5.27;;
10529;SDS011;5313;48.834;9.228;2023-04-29T14:40:28;7.40;;;4.77;;
10529;SDS011;5313;48.834;9.228;2023-04-29T14:42:53;5.47;;;4.50;;
10529;SDS011;5313;48.834;9.228;2023-04-29T14:45:19;5.77;;;5.07;;
10529;SDS011;5313;48.834;9.228;2023-04-29T14:47:45;5.60;;;4.30;;
10529;SDS011;5313;48.834;9.228;2023-04-29T14:50:10;5.73;;;4.90;;
10529;SDS011;5313;48.834;9.228;2023-04-29T14:52:36;6.80;;;5.07;;
10529;SDS011;5313;48.834;9.228;2023-04-29T14:55:01;5.83;;;4.80;;
10529;SDS011;5313;48.834;9.228;2023-04-29T14:57:27;5.80;;;4.60;;
10529;SDS011;5313;48.834;9.228;2023-04-29T14:59:53;6.00;;;4.47;;
10529;SDS011;5313;48.834;9.228;2023-04-29T15:02:19;6.67;;;5.00;;
10529;SDS011;5313;48.834;9.228;2023-04-29T15:04:45;6.10;;;4.67;;
10529;SDS011;5313;48.834;9.228;2023-04-29T15:07:14;6.60;;;4.67;;
10529;SDS011;5313;48.834;9.228;2023-04-29T15:09:40;7.53;;;5.30;;
10529;SDS011;5313;48.834;9.228;2023-04-29T15:12:06;6.37;;;5.20;;
10529;SDS011;5313;48.834;9.228;2023-04-29T15:14:32;5.50;;;4.50;;
10529;SDS011;5313;48.834;9.228;2023-04-29T15:16:58;8.13;;;5.17;;
10529;SDS011;5313;48.834;9.228;2023-04-29T15:19:23;7.53;;;5.40;;
10529;SDS011;5313;48.834;9.228;2023-04-29T15:21:50;7.23;;;5.47;;
10529;SDS011;5313;48.834;9.228;2023-04-29T15:24:16;7.67;;;5.97;;
10529;SDS011;5313;48.834;9.228;2023-04-29T15:26:42;7.70;;;5.10;;
10529;SDS011;5313;48.834;9.228;2023-04-29T15:29:07;7.63;;;5.07;;